Time;durP1;ratioP1;P1;durP2;ratioP2;P2;SDS_P1;SDS_P2;PMS_P1;PMS_P2;Temp;Humidity;BMP_temperature;BMP_pressure;BME280_temperature;BME280_humidity;BME280_pressure;Samples;Min_cycle;Max_cycle;Signal;HPM_P1;HPM_P2
2023/01/03 00:01:42;;;;;;;24.67;17.33;;;;;;;6.73;96.55;99312.80;2227633;80;21042;-80
2023/01/03 00:04:43;;;;;;;25.93;18.63;;;;;;;6.70;96.74;99310.98;2228256;80;20950;-80
2023/01/03 00:07:43;;;;;;;24.53;17.53;;;;;;;6.70;96.79;99307.09;2228230;80;20958;-80
2023/01/03 00:10:44;;;;;;;27.17;17.63;;;;;;;6.73;97.10;99312.80;2228355;80;20954;-80
2023/01/03 00:13:44;;;;;;;23.43;16.93;;;;;;;6.73;96.96;99319.28;2228149;80;21351;-80
2023/01/03 00:16:45;;;;;;;25.17;17.37;;;;;;;6.75;97.34;99323.23;2228130;80;20910;-80
2023/01/03 00:19:45;;;;;;;26.57;18.00;;;;;;;6.75;97.18;99318.04;2228201;80;20983;-80
2023/01/03 00:22:45;;;;;;;22.83;16.97;;;;;;;6.74;97.84;99317.57;2227821;80;21045;-80
2023/01/03 00:25:46;;;;;;;23.97;17.50;;;;;;;6.78;98.49;99320.32;2227989;80;20969;-79
2023/01/03 00:28:46;;;;;;;23.80;16.23;;;;;;;6.82;97.66;99318.72;2228120;80;20942;-80
2023/01/03 00:31:46;;;;;;;24.20;16.63;;;;;;;6.86;98.04;99318.88;2228078;80;21346;-80
2023/01/03 00:34:47;;;;;;;25.63;17.77;;;;;;;6.90;98.07;99318.56;2228125;80;20986;-79
2023/01/03 00:37:47;;;;;;;23.57;16.30;;;;;;;6.94;97.72;99326.95;2228031;80;20934;-79
2023/01/03 00:40:48;;;;;;;26.27;16.30;;;;;;;6.98;97.63;99325.80;2228217;80;20951;-80
2023/01/03 00:43:48;;;;;;;26.17;16.37;;;;;;;6.99;97.48;99321.08;2228222;80;20981;-79
2023/01/03 00:46:48;;;;;;;28.27;18.43;;;;;;;7.03;97.38;99319.47;2228276;79;20994;-80
2023/01/03 00:49:49;;;;;;;23.87;18.07;;;;;;;7.06;97.19;99318.27;2228032;80;20879;-79
2023/01/03 00:52:49;;;;;;;23.90;16.90;;;;;;;7.10;97.34;99325.33;2224535;79;20990;-80
2023/01/03 00:55:50;;;;;;;26.43;17.27;;;;;;;7.14;97.19;99323.72;2223482;80;21410;-80
2023/01/03 00:58:50;;;;;;;27.13;17.50;;;;;;;7.16;97.26;99326.83;2223849;80;20943;-80
2023/01/03 01:01:50;;;;;;;25.57;16.67;;;;;;;7.18;97.32;99327.77;2223864;80;20966;-79
2023/01/03 01:04:51;;;;;;;30.60;18.50;;;;;;;7.21;97.44;99323.97;2223648;80;20971;-80
2023/01/03 01:07:51;;;;;;;28.37;16.80;;;;;;;7.24;97.16;99334.88;2224019;80;20964;-80
2023/01/03 01:11:01;;;;;;;26.23;18.17;;;;;;;7.25;96.90;99340.11;2223724;80;20930;-80
2023/01/03 01:14:01;;;;;;;25.43;17.60;;;;;;;7.27;97.30;99341.47;2223170;80;21283;-79
2023/01/03 01:17:01;;;;;;;25.13;17.43;;;;;;;7.27;97.00;99346.66;2223026;80;20930;-80
2023/01/03 01:20:02;;;;;;;27.03;17.70;;;;;;;7.28;96.99;99345.83;2222759;80;20970;-82
2023/01/03 01:23:02;;;;;;;27.37;16.97;;;;;;;7.87;100.00;99352.94;2223018;80;21359;-82
2023/01/03 01:26:03;;;;;;;27.90;17.30;;;;;;;10.35;100.00;99355.09;2223183;80;20954;-81
2023/01/03 01:29:03;;;;;;;25.97;17.63;;;;;;;12.47;100.00;99351.77;2223352;80;21327;-82
2023/01/03 01:32:03;;;;;;;22.80;17.03;;;;;;;13.89;100.00;99339.66;2223830;80;20976;-79
2023/01/03 01:35:04;;;;;;;24.50;17.77;;;;;;;13.14;86.35;99345.98;2223888;80;20924;-78
2023/01/03 01:38:04;;;;;;;27.23;17.13;;;;;;;11.73;82.09;99358.09;2223780;80;21283;-78
2023/01/03 01:41:05;;;;;;;26.73;17.17;;;;;;;10.56;82.95;99358.17;2223353;80;20923;-78
2023/01/03 01:47:24;;;;;;;24.90;16.90;;;;;;;9.39;85.92;99364.58;2223676;80;20975;-78
2023/01/03 01:50:24;;;;;;;27.37;17.57;;;;;;;9.00;86.86;99367.92;2223343;80;20923;-78
2023/01/03 01:53:24;;;;;;;22.10;15.97;;;;;;;8.78;87.80;99358.66;2223460;78;21365;-78
2023/01/03 01:56:25;;;;;;;26.13;17.37;;;;;;;8.58;88.31;99370.21;2223771;80;20928;-77
2023/01/03 01:59:27;;;;;;;27.23;17.03;;;;;;;8.42;88.96;99369.31;2223681;80;20935;-78
2023/01/03 02:02:26;;;;;;;26.73;15.97;;;;;;;8.29;89.56;99366.75;2222828;80;21409;-78
2023/01/03 02:05:29;;;;;;;22.00;15.70;;;;;;;8.21;90.15;99372.15;2223184;80;20919;-79
2023/01/03 02:08:29;;;;;;;27.10;17.40;;;;;;;8.16;90.71;99375.03;2222806;80;20931;-78
2023/01/03 02:11:30;;;;;;;24.20;16.03;;;;;;;8.08;91.17;99374.80;2223208;80;20919;-78
2023/01/03 02:14:30;;;;;;;26.50;16.07;;;;;;;8.06;91.47;99375.17;2223330;80;21294;-79
2023/01/03 02:17:31;;;;;;;23.53;15.00;;;;;;;8.03;91.59;99376.37;2224215;80;20935;-79
2023/01/03 02:20:31;;;;;;;28.10;15.63;;;;;;;8.03;91.62;99375.08;2224422;80;20927;-79
2023/01/03 02:23:31;;;;;;;25.43;16.37;;;;;;;7.98;91.85;99384.04;2223869;80;20998;-79
2023/01/03 02:26:32;;;;;;;22.10;15.77;;;;;;;7.97;92.11;99384.88;2223812;80;20994;-79
2023/01/03 02:29:32;;;;;;;22.30;14.70;;;;;;;7.96;92.14;99393.92;2224429;80;20970;-78
2023/01/03 02:32:33;;;;;;;27.60;16.33;;;;;;;7.94;92.11;99396.90;2223992;80;20958;-79
2023/01/03 02:35:33;;;;;;;19.67;13.87;;;;;;;7.96;92.27;99401.73;2223891;80;20928;-79
2023/01/03 02:38:34;;;;;;;20.67;14.17;;;;;;;7.91;92.33;99409.38;2224130;80;20955;-79
2023/01/03 02:41:34;;;;;;;21.13;13.53;;;;;;;7.89;92.51;99411.05;2223990;80;20931;-79
2023/01/03 02:44:34;;;;;;;19.63;13.33;;;;;;;7.87;92.58;99420.52;2224013;80;20931;-80
2023/01/03 02:47:35;;;;;;;17.63;13.33;;;;;;;7.87;92.66;99420.94;2224367;80;20891;-80
2023/01/03 02:50:35;;;;;;;29.07;14.27;;;;;;;7.89;92.57;99424.47;2223989;80;20927;-80
2023/01/03 02:53:35;;;;;;;25.10;13.97;;;;;;;7.91;92.67;99430.59;2227776;79;21026;-79
2023/01/03 02:56:36;;;;;;;28.27;14.57;;;;;;;7.91;92.91;99435.80;2227684;80;21314;-81
2023/01/03 02:59:36;;;;;;;26.13;13.00;;;;;;;7.91;92.72;99437.98;2228227;80;20982;-80
2023/01/03 03:02:37;;;;;;;33.87;13.50;;;;;;;7.93;92.80;99446.70;2228165;80;20986;-81
2023/01/03 03:05:37;;;;;;;22.60;13.47;;;;;;;7.95;92.74;99445.04;2227550;80;20926;-78
2023/01/03 03:08:37;;;;;;;21.27;11.87;;;;;;;8.01;92.62;99453.45;2227966;80;20965;-79
2023/01/03 03:14:57;;;;;;;20.43;11.47;;;;;;;8.08;92.52;99445.42;2227381;80;20922;-79
2023/01/03 03:17:57;;;;;;;20.90;10.60;;;;;;;8.11;92.18;99449.42;2227321;80;20930;-79
2023/01/03 03:24:49;;;;;;;15.23;9.93;;;;;;;8.15;91.87;99449.98;2226921;80;20969;-79
2023/01/03 03:30:47;;;;;;;41.60;11.20;;;;;;;8.21;91.72;99450.17;2227961;80;21006;-79
2023/01/03 03:33:48;;;;;;;18.47;10.10;;;;;;;8.26;91.56;99457.27;2228321;80;20966;-78
2023/01/03 03:36:48;;;;;;;15.53;10.30;;;;;;;8.28;91.44;99455.60;2228111;79;20966;-80
2023/01/03 03:46:26;;;;;;;13.80;9.63;;;;;;;8.33;90.83;99476.97;2227936;80;20914;-79
2023/01/03 03:49:39;;;;;;;15.57;10.07;;;;;;;8.30;90.76;99482.96;2228163;80;20978;-79
2023/01/03 03:52:39;;;;;;;16.17;10.33;;;;;;;8.28;90.69;99488.11;2232565;80;21018;-80
2023/01/03 03:55:39;;;;;;;14.80;8.97;;;;;;;8.28;90.78;99499.82;2238778;80;20997;-79
2023/01/03 03:58:40;;;;;;;14.30;9.37;;;;;;;8.27;90.68;99496.75;2238355;80;20957;-80
2023/01/03 04:01:40;;;;;;;17.00;9.67;;;;;;;8.27;90.75;99504.97;2238552;80;20957;-80
2023/01/03 04:04:41;;;;;;;19.27;10.57;;;;;;;8.27;90.74;99524.48;2237923;80;21214;-79
2023/01/03 04:07:41;;;;;;;13.83;9.97;;;;;;;8.27;90.79;99520.16;2237885;79;20978;-79
2023/01/03 04:10:41;;;;;;;17.10;12.27;;;;;;;8.31;90.76;99516.82;2238359;80;21001;-79
2023/01/03 04:13:42;;;;;;;15.03;10.60;;;;;;;8.34;90.66;99523.88;2238405;79;20934;-78
2023/01/03 04:16:42;;;;;;;14.80;10.10;;;;;;;8.37;90.68;99526.57;2238326;79;20942;-79
2023/01/03 04:19:42;;;;;;;17.83;9.97;;;;;;;8.38;90.77;99523.13;2238462;79;20935;-80
2023/01/03 04:22:43;;;;;;;15.87;10.57;;;;;;;8.41;90.60;99522.34;2238526;80;21025;-80
2023/01/03 04:25:43;;;;;;;13.93;10.03;;;;;;;8.40;90.55;99526.66;2238518;79;20966;-78
2023/01/03 04:28:44;;;;;;;19.33;10.47;;;;;;;8.41;90.52;99537.53;2238594;80;20966;-79
2023/01/03 04:31:44;;;;;;;13.37;10.03;;;;;;;8.41;90.35;99543.16;2238323;79;21033;-79
2023/01/03 04:34:45;;;;;;;16.03;10.43;;;;;;;8.42;90.36;99539.72;2238316;80;20988;-80
2023/01/03 04:37:45;;;;;;;15.27;10.20;;;;;;;8.42;90.37;99551.42;2238353;80;21028;-79
2023/01/03 04:40:45;;;;;;;15.57;11.17;;;;;;;8.42;90.44;99551.42;2237480;80;21302;-79
2023/01/03 04:44:01;;;;;;;21.87;10.10;;;;;;;8.40;90.34;99553.09;2237264;79;20982;-80
2023/01/03 04:47:02;;;;;;;16.17;10.47;;;;;;;8.41;90.38;99556.16;2236348;80;21407;-79
2023/01/03 04:50:02;;;;;;;15.77;10.40;;;;;;;8.42;90.45;99567.03;2236944;79;20974;-79
2023/01/03 04:53:03;;;;;;;14.40;9.73;;;;;;;8.43;90.42;99562.30;2236110;78;21006;-79
2023/01/03 04:56:03;;;;;;;12.97;8.67;;;;;;;8.45;90.40;99565.41;2235630;80;21282;-78
2023/01/03 04:59:03;;;;;;;13.97;9.90;;;;;;;8.47;90.41;99577.17;2236367;80;20969;-79
2023/01/03 05:02:04;;;;;;;13.43;10.53;;;;;;;8.46;90.36;99580.19;2236445;80;20940;-78
2023/01/03 05:05:04;;;;;;;17.13;10.50;;;;;;;8.47;90.33;99562.86;2236277;80;20958;-79
2023/01/03 05:08:05;;;;;;;13.47;9.70;;;;;;;8.49;90.32;99570.30;2235960;80;20982;-79
2023/01/03 05:11:05;;;;;;;14.17;10.70;;;;;;;8.48;90.32;99568.11;2236434;80;21484;-79
2023/01/03 05:14:05;;;;;;;13.60;10.40;;;;;;;8.49;90.31;99575.50;2236415;80;20978;-79
2023/01/03 05:17:06;;;;;;;13.73;10.07;;;;;;;8.52;91.74;99580.80;2235699;80;21425;-79
2023/01/03 05:26:44;;;;;;;16.97;11.10;;;;;;;8.50;90.46;99593.77;2234553;80;20910;-78
2023/01/03 05:29:46;;;;;;;15.43;11.17;;;;;;;8.49;90.73;99597.62;2234427;80;20973;-78
2023/01/03 05:32:45;;;;;;;13.93;9.93;;;;;;;8.47;90.84;99609.28;2234861;80;20934;-79
2023/01/03 05:35:46;;;;;;;14.30;10.60;;;;;;;8.47;91.13;99618.80;2234749;80;21480;-79
2023/01/03 05:38:45;;;;;;;13.33;9.33;;;;;;;8.46;91.09;99609.23;2234616;80;20891;-78
2023/01/03 05:42:01;;;;;;;16.10;9.90;;;;;;;8.48;91.12;99615.36;2235449;80;20950;-79
2023/01/03 05:45:01;;;;;;;12.50;10.03;;;;;;;8.47;91.17;99616.20;2235628;80;21276;-78
2023/01/03 05:48:02;;;;;;;16.40;11.53;;;;;;;8.49;91.25;99621.92;2234160;80;20934;-77
2023/01/03 05:51:02;;;;;;;16.30;10.90;;;;;;;8.52;91.34;99623.73;2234279;80;20938;-79
2023/01/03 05:54:03;;;;;;;14.97;10.97;;;;;;;8.53;91.32;99628.98;2227293;78;21074;-78
2023/01/03 05:57:03;;;;;;;15.07;11.53;;;;;;;8.55;91.55;99638.15;2225198;80;20954;-78
2023/01/03 06:00:03;;;;;;;23.30;15.20;;;;;;;8.55;91.47;99636.84;2225073;80;20958;-78
2023/01/03 06:03:04;;;;;;;25.13;17.00;;;;;;;8.55;91.40;99640.75;2225238;80;21037;-80
2023/01/03 06:06:04;;;;;;;32.80;22.37;;;;;;;8.53;91.49;99641.11;2226038;80;20926;-78
2023/01/03 06:09:05;;;;;;;40.33;22.80;;;;;;;8.53;91.48;99651.52;2225948;80;20978;-80
2023/01/03 06:12:05;;;;;;;33.23;26.03;;;;;;;8.50;91.41;99647.52;2225477;80;20906;-78
2023/01/03 06:15:05;;;;;;;25.07;17.50;;;;;;;8.47;91.66;99650.02;2226208;80;20946;-78
2023/01/03 06:18:06;;;;;;;14.57;11.43;;;;;;;8.41;91.20;99654.61;2225324;80;21314;-78
2023/01/03 06:21:06;;;;;;;12.53;9.57;;;;;;;8.39;91.35;99657.98;2226438;80;20955;-79
2023/01/03 06:24:07;;;;;;;10.47;7.83;;;;;;;8.34;91.09;99655.66;2225885;80;21008;-80
2023/01/03 06:27:07;;;;;;;9.73;7.60;;;;;;;8.30;91.29;99663.32;2225588;80;20994;-79
2023/01/03 06:30:07;;;;;;;15.23;10.00;;;;;;;8.30;91.37;99663.32;2225361;80;20971;-80
2023/01/03 06:33:10;;;;;;;12.60;9.93;;;;;;;8.29;91.40;99668.47;2226057;80;21410;-79
2023/01/03 06:36:08;;;;;;;16.67;9.93;;;;;;;8.30;91.33;99681.95;2225197;80;20934;-81
2023/01/03 06:39:09;;;;;;;12.83;7.60;;;;;;;8.31;91.41;99684.59;2225035;80;20971;-78
2023/01/03 06:55:24;;;;;;;9.80;6.67;;;;;;;8.36;91.55;99709.50;2220367;80;21063;-78
2023/01/03 06:58:24;;;;;;;9.63;5.73;;;;;;;8.35;91.49;99711.63;2220944;80;20939;-78
2023/01/03 07:01:25;;;;;;;7.87;6.33;;;;;;;8.35;91.62;99722.04;2220154;80;22099;-78
2023/01/03 07:04:25;;;;;;;10.77;6.67;;;;;;;8.36;91.70;99729.43;2221059;80;20967;-78
2023/01/03 07:07:25;;;;;;;16.17;7.37;;;;;;;8.34;91.65;99738.89;2221292;80;20935;-77
2023/01/03 07:10:28;;;;;;;10.87;6.53;;;;;;;8.34;91.70;99740.20;2221089;80;20960;-77
2023/01/03 07:16:47;;;;;;;11.93;6.70;;;;;;;8.31;92.10;99746.14;2220691;80;21321;-77
2023/01/03 07:19:47;;;;;;;14.10;6.23;;;;;;;8.28;92.04;99752.54;2220548;80;20963;-78
2023/01/03 07:22:48;;;;;;;11.73;7.20;;;;;;;8.25;91.99;99765.44;2219971;80;20962;-78
2023/01/03 07:25:48;;;;;;;9.90;6.40;;;;;;;8.19;91.75;99764.80;2220765;80;20954;-77
2023/01/03 07:28:49;;;;;;;9.20;5.90;;;;;;;8.15;92.02;99767.23;2219836;80;20978;-77
2023/01/03 07:31:49;;;;;;;9.00;5.77;;;;;;;8.11;92.02;99771.45;2220754;80;20958;-79
2023/01/03 07:34:49;;;;;;;12.67;7.37;;;;;;;8.06;92.21;99778.20;2220681;80;20999;-77
2023/01/03 07:37:50;;;;;;;16.37;11.63;;;;;;;8.03;91.83;99772.88;2221739;80;21311;-79
2023/01/03 07:40:50;;;;;;;18.37;10.57;;;;;;;8.13;92.66;99777.59;2221849;80;20998;-79
2023/01/03 07:43:51;;;;;;;17.77;10.83;;;;;;;8.10;91.62;99773.58;2220942;80;20951;-79
2023/01/03 07:46:51;;;;;;;13.60;8.60;;;;;;;8.07;91.46;99786.88;2220707;80;20958;-79
2023/01/03 07:49:51;;;;;;;14.53;10.50;;;;;;;8.04;91.46;99794.16;2220534;80;20969;-78
2023/01/03 07:52:52;;;;;;;17.57;10.90;;;;;;;8.03;91.25;99794.98;2220734;78;21388;-77
2023/01/03 07:55:52;;;;;;;13.93;8.33;;;;;;;8.05;91.16;99807.62;2221018;80;20903;-78
2023/01/03 07:58:53;;;;;;;12.43;7.63;;;;;;;8.02;91.07;99806.21;2220699;80;20927;-78
2023/01/03 08:01:53;;;;;;;11.53;6.53;;;;;;;8.04;91.04;99816.25;2220983;80;20962;-78
2023/01/03 08:04:53;;;;;;;13.30;6.70;;;;;;;8.07;90.86;99808.57;2220436;80;20963;-79
2023/01/03 08:07:54;;;;;;;13.07;8.00;;;;;;;8.09;90.62;99810.81;2221021;80;20903;-79
2023/01/03 08:14:13;;;;;;;12.33;7.83;;;;;;;8.15;90.39;99812.34;2221174;80;21297;-77
2023/01/03 08:17:13;;;;;;;13.27;7.90;;;;;;;8.18;90.25;99821.55;2220356;80;20946;-78
2023/01/03 08:20:14;;;;;;;10.40;7.33;;;;;;;8.22;90.07;99826.45;2220290;80;20942;-78
2023/01/03 08:23:14;;;;;;;14.03;9.07;;;;;;;8.23;89.47;99823.91;2219632;80;21386;-78
2023/01/03 08:26:14;;;;;;;13.50;7.03;;;;;;;8.24;89.41;99832.59;2219779;80;20978;-78
2023/01/03 08:29:15;;;;;;;13.20;6.40;;;;;;;8.25;89.27;99833.95;2219841;80;21342;-79
2023/01/03 08:32:15;;;;;;;15.77;6.37;;;;;;;8.25;88.92;99836.55;2219455;80;20927;-78
2023/01/03 08:35:16;;;;;;;12.63;6.07;;;;;;;8.26;89.03;99840.92;2219961;80;20931;-78
2023/01/03 08:38:16;;;;;;;10.10;5.87;;;;;;;8.27;88.43;99834.89;2220280;80;21350;-78
2023/01/03 08:41:16;;;;;;;12.27;5.33;;;;;;;8.30;88.55;99829.80;2220238;80;20907;-78
2023/01/03 08:44:17;;;;;;;13.70;5.73;;;;;;;8.38;87.59;99825.33;2220331;80;20946;-78
2023/01/03 08:47:17;;;;;;;8.07;4.80;;;;;;;8.45;87.60;99823.41;2221058;80;21378;-79
2023/01/03 08:50:18;;;;;;;10.40;5.67;;;;;;;8.51;86.24;99839.24;2220247;80;20963;-77
2023/01/03 08:53:19;;;;;;;8.77;5.30;;;;;;;8.57;86.03;99842.06;2221667;78;21384;-77
2023/01/03 08:56:18;;;;;;;7.20;4.27;;;;;;;8.63;85.48;99847.48;2224391;80;21663;-77
2023/01/03 08:59:19;;;;;;;5.63;4.40;;;;;;;8.67;84.18;99848.09;2223989;80;20958;-78
2023/01/03 09:02:19;;;;;;;7.87;4.77;;;;;;;8.75;84.06;99849.25;2224898;80;21025;-79
2023/01/03 09:05:20;;;;;;;10.40;4.63;;;;;;;8.90;85.76;99847.59;2224322;80;20932;-77
2023/01/03 09:08:20;;;;;;;12.63;5.40;;;;;;;8.99;84.36;99847.02;2224562;80;20958;-78
2023/01/03 09:11:20;;;;;;;11.00;5.27;;;;;;;8.98;84.70;99849.16;2223968;80;20997;-78
2023/01/03 09:14:21;;;;;;;9.93;5.00;;;;;;;9.04;83.62;99854.58;2223751;80;21039;-77
2023/01/03 09:17:21;;;;;;;11.27;4.17;;;;;;;9.05;83.75;99853.32;2224290;80;20922;-79
2023/01/03 09:20:22;;;;;;;10.87;5.47;;;;;;;8.99;83.33;99856.13;2223202;80;20990;-78
2023/01/03 09:23:22;;;;;;;10.63;5.53;;;;;;;8.98;84.22;99861.76;2222576;80;20994;-77
2023/01/03 09:26:22;;;;;;;14.63;4.57;;;;;;;8.91;84.20;99864.98;2223777;80;20978;-79
2023/01/03 09:29:23;;;;;;;14.43;4.40;;;;;;;8.84;85.03;99861.28;2223179;80;20961;-77
2023/01/03 09:32:23;;;;;;;11.00;5.23;;;;;;;8.74;86.04;99859.19;2222793;80;20942;-78
2023/01/03 09:35:24;;;;;;;7.17;4.73;;;;;;;8.63;87.33;99857.89;2223570;80;20990;-79
2023/01/03 09:38:24;;;;;;;13.50;6.00;;;;;;;8.55;88.35;99867.15;2224279;80;20954;-78
2023/01/03 09:41:24;;;;;;;9.90;6.63;;;;;;;8.41;89.16;99865.77;2223661;80;20954;-77
2023/01/03 09:44:25;;;;;;;5.97;4.20;;;;;;;8.35;88.85;99875.53;2224616;80;21029;-77
2023/01/03 09:47:25;;;;;;;7.60;4.20;;;;;;;8.24;87.35;99876.39;2225109;80;21195;-79
2023/01/03 09:50:29;;;;;;;13.33;4.27;;;;;;;8.14;86.83;99872.98;2224949;80;20982;-79
2023/01/03 10:03:43;;;;;;;9.43;6.07;;;;;;;7.83;89.11;99875.23;2203985;81;21287;-79
2023/01/03 10:06:44;;;;;;;5.37;3.40;;;;;;;7.74;90.05;99877.02;2203717;81;20911;-77
2023/01/03 10:09:44;;;;;;;5.97;3.90;;;;;;;7.66;91.82;99890.13;2203606;81;20924;-78
2023/01/03 10:12:44;;;;;;;8.87;4.30;;;;;;;7.61;91.71;99879.97;2204049;81;20936;-78
2023/01/03 10:15:45;;;;;;;6.00;4.57;;;;;;;7.62;92.20;99877.84;2203509;81;21296;-78
2023/01/03 10:18:46;;;;;;;6.10;3.70;;;;;;;7.59;92.38;99890.71;2203384;81;20961;-77
2023/01/03 10:21:46;;;;;;;6.10;4.07;;;;;;;7.58;93.01;99891.12;2202946;81;20958;-77
2023/01/03 10:24:46;;;;;;;9.00;5.27;;;;;;;7.66;92.60;99881.92;2201894;81;20951;-78
2023/01/03 10:27:47;;;;;;;9.20;4.83;;;;;;;7.81;92.93;99885.57;2203328;81;20964;-77
2023/01/03 10:30:47;;;;;;;8.30;5.90;;;;;;;7.95;93.42;99878.31;2203600;81;20963;-78
2023/01/03 10:33:47;;;;;;;15.93;9.87;;;;;;;8.05;93.09;99872.63;2203808;81;20916;-77
2023/01/03 10:36:48;;;;;;;18.03;10.67;;;;;;;8.12;92.63;99877.23;2203881;81;20940;-77
2023/01/03 10:39:48;;;;;;;15.03;8.57;;;;;;;8.13;92.80;99872.51;2204103;81;21327;-77
2023/01/03 10:42:49;;;;;;;13.67;8.13;;;;;;;8.13;93.04;99870.32;2203558;81;20959;-77
2023/01/03 10:45:49;;;;;;;15.10;8.97;;;;;;;8.22;93.04;99874.56;2203827;81;20956;-77
2023/01/03 10:48:49;;;;;;;17.13;8.40;;;;;;;8.31;93.16;99868.41;2204079;81;21300;-77
2023/01/03 10:51:50;;;;;;;18.27;8.33;;;;;;;8.36;93.20;99863.41;2204426;81;20892;-78
2023/01/03 10:54:50;;;;;;;12.67;8.00;;;;;;;8.44;91.83;99865.88;2204250;80;21018;-77
2023/01/03 10:57:50;;;;;;;17.63;8.30;;;;;;;8.53;90.90;99863.19;2203133;81;20947;-77
2023/01/03 11:00:51;;;;;;;11.53;6.90;;;;;;;8.65;90.60;99857.95;2204371;81;20995;-76
2023/01/03 11:03:51;;;;;;;11.17;7.77;;;;;;;8.81;89.11;99865.50;2204629;81;21352;-78
2023/01/03 11:06:52;;;;;;;10.70;8.30;;;;;;;8.92;88.13;99865.45;2204400;81;20888;-77
2023/01/03 11:09:52;;;;;;;10.50;6.93;;;;;;;9.05;87.05;99860.25;2203668;81;20884;-78
2023/01/03 11:12:56;;;;;;;10.03;7.37;;;;;;;9.08;83.56;99863.84;2203058;81;21346;-77
2023/01/03 11:15:56;;;;;;;9.70;6.43;;;;;;;9.12;83.30;99855.72;2203431;81;20911;-77
2023/01/03 11:18:56;;;;;;;9.33;6.77;;;;;;;9.11;81.00;99850.04;2203127;81;20923;-77
2023/01/03 11:21:57;;;;;;;7.90;5.90;;;;;;;9.05;81.65;99851.13;2203738;81;20957;-78
2023/01/03 11:24:57;;;;;;;9.57;6.23;;;;;;;9.00;79.91;99857.48;2204164;81;21340;-78
2023/01/03 11:28:00;;;;;;;7.93;6.50;;;;;;;9.03;81.17;99866.70;2179886;81;20923;-78
2023/01/03 11:31:00;;;;;;;11.20;7.70;;;;;;;9.08;81.39;99862.95;2204452;81;20927;-77
2023/01/03 11:34:00;;;;;;;14.00;8.63;;;;;;;9.14;80.74;99868.38;2204133;81;21304;-78
2023/01/03 11:37:01;;;;;;;14.30;10.17;;;;;;;9.18;79.35;99859.83;2203921;81;20956;-78
2023/01/03 11:40:01;;;;;;;12.13;8.30;;;;;;;9.16;79.44;99864.98;2203850;81;20996;-77
2023/01/03 11:43:02;;;;;;;9.80;7.20;;;;;;;9.13;77.55;99864.88;2203124;81;21323;-78
2023/01/03 11:46:02;;;;;;;9.53;5.33;;;;;;;9.14;78.77;99868.38;2203431;81;20969;-78
2023/01/03 11:49:03;;;;;;;5.67;4.17;;;;;;;9.11;73.19;99868.27;2204488;81;20915;-78
2023/01/03 11:52:03;;;;;;;6.13;2.77;;;;;;;9.00;67.41;99880.04;2204749;81;20999;-78
2023/01/03 11:55:03;;;;;;;4.80;2.60;;;;;;;8.89;65.88;99880.97;2215141;79;20999;-79
2023/01/03 11:58:04;;;;;;;4.13;3.17;;;;;;;8.82;64.08;99868.57;2221741;80;21287;-78
2023/01/03 12:01:04;;;;;;;6.40;3.40;;;;;;;8.81;64.17;99876.80;2221307;80;20966;-79
2023/01/03 12:04:06;;;;;;;3.97;3.23;;;;;;;8.80;63.28;99875.03;2220673;80;20927;-78
2023/01/03 12:07:06;;;;;;;7.20;4.30;;;;;;;8.78;65.42;99874.09;2220370;80;21406;-78
2023/01/03 12:10:05;;;;;;;9.80;3.20;;;;;;;8.75;64.05;99877.88;2220039;80;20922;-77
2023/01/03 12:13:06;;;;;;;4.97;3.13;;;;;;;8.71;64.67;99879.91;2220284;80;21405;-78
2023/01/03 12:16:07;;;;;;;3.77;2.77;;;;;;;8.68;63.95;99879.80;2221265;80;21338;-78
2023/01/03 12:19:07;;;;;;;4.13;3.40;;;;;;;8.71;63.80;99885.12;2220418;80;20927;-79
2023/01/03 12:22:08;;;;;;;4.23;3.13;;;;;;;8.72;65.01;99884.28;2221520;80;20998;-79
2023/01/03 12:25:08;;;;;;;5.20;3.90;;;;;;;8.73;63.75;99876.06;2220787;80;20939;-78
2023/01/03 12:28:08;;;;;;;5.00;3.90;;;;;;;8.74;65.64;99880.02;2219635;80;20931;-77
2023/01/03 12:31:08;;;;;;;10.23;3.70;;;;;;;8.72;65.63;99876.89;2219687;80;20959;-77
2023/01/03 12:34:09;;;;;;;5.97;4.30;;;;;;;8.72;66.38;99875.17;2219717;80;20971;-77
2023/01/03 12:37:09;;;;;;;6.53;4.07;;;;;;;8.70;63.99;99878.14;2219846;80;20954;-79
2023/01/03 12:40:09;;;;;;;8.17;5.00;;;;;;;8.67;63.75;99875.42;2221617;80;20911;-78
2023/01/03 12:43:11;;;;;;;5.10;3.30;;;;;;;8.60;63.84;99874.70;2221452;80;21462;-77
2023/01/03 12:46:10;;;;;;;5.73;3.33;;;;;;;8.57;63.28;99872.88;2220535;80;20942;-77
2023/01/03 12:49:11;;;;;;;3.53;3.23;;;;;;;8.55;63.85;99865.84;2220361;80;20912;-77
2023/01/03 12:52:11;;;;;;;5.93;3.50;;;;;;;8.53;63.90;99870.11;2220104;80;21329;-78
2023/01/03 12:55:11;;;;;;;6.10;4.63;;;;;;;8.48;63.97;99872.96;2230655;79;21388;-77
2023/01/03 12:58:12;;;;;;;5.27;3.43;;;;;;;8.40;64.48;99865.29;2236347;79;20882;-77
2023/01/03 13:01:14;;;;;;;3.63;3.27;;;;;;;8.30;65.53;99879.64;2236792;79;20957;-78
2023/01/03 13:04:13;;;;;;;11.20;4.13;;;;;;;8.25;66.24;99871.67;2236245;79;20936;-77
2023/01/03 13:07:13;;;;;;;4.83;3.57;;;;;;;8.20;67.71;99877.11;2237165;79;21475;-80
2023/01/03 13:10:13;;;;;;;6.80;3.70;;;;;;;8.12;67.91;99867.25;2236887;79;20901;-80
2023/01/03 13:13:14;;;;;;;6.70;3.63;;;;;;;8.03;68.72;99863.89;2235428;79;20963;-80
2023/01/03 13:16:14;;;;;;;6.87;3.20;;;;;;;7.98;69.07;99870.21;2236369;79;20960;-79
2023/01/03 13:19:15;;;;;;;4.20;3.80;;;;;;;7.92;69.66;99860.88;2235838;79;21093;-80
2023/01/03 13:22:15;;;;;;;10.10;4.87;;;;;;;7.89;69.91;99863.77;2235766;79;20944;-80
2023/01/03 13:25:15;;;;;;;7.27;4.43;;;;;;;7.86;70.22;99866.26;2235690;79;20909;-81
2023/01/03 13:28:16;;;;;;;11.57;5.13;;;;;;;7.83;69.51;99870.92;2234765;79;20945;-80
2023/01/03 13:31:16;;;;;;;8.53;4.57;;;;;;;7.77;70.07;99872.36;2234806;79;20874;-79
2023/01/03 13:34:17;;;;;;;7.93;4.70;;;;;;;7.70;70.76;99879.03;2235931;79;20944;-79
2023/01/03 13:37:17;;;;;;;5.47;4.93;;;;;;;7.61;71.57;99877.37;2235445;79;21012;-79
2023/01/03 13:40:17;;;;;;;7.17;4.47;;;;;;;7.52;72.01;99875.28;2237247;79;20960;-79
2023/01/03 13:43:18;;;;;;;10.53;4.73;;;;;;;7.47;72.24;99870.73;2236350;79;20956;-79
2023/01/03 13:46:18;;;;;;;8.93;4.73;;;;;;;7.43;72.58;99876.63;2238785;79;20945;-82
2023/01/03 13:49:19;;;;;;;7.83;4.90;;;;;;;7.36;72.90;99876.79;2238831;79;20932;-80
2023/01/03 13:52:19;;;;;;;7.00;4.87;;;;;;;7.31;73.18;99883.51;2238187;79;20929;-79
2023/01/03 13:55:20;;;;;;;7.03;4.53;;;;;;;7.24;73.61;99882.38;2244485;79;21641;-75
2023/01/03 13:58:20;;;;;;;7.90;5.20;;;;;;;7.18;74.49;99896.39;2250851;79;20937;-82
2023/01/03 14:01:20;;;;;;;9.13;5.93;;;;;;;7.14;74.56;99892.31;2251402;79;20869;-81
2023/01/03 14:04:21;;;;;;;5.67;5.07;;;;;;;7.09;74.74;99889.52;2250836;79;20983;-81
2023/01/03 14:07:21;;;;;;;6.73;4.83;;;;;;;7.07;75.25;99900.66;2250445;79;20964;-81
2023/01/03 14:10:22;;;;;;;9.30;5.30;;;;;;;7.02;75.64;99900.06;2250483;79;20908;-82
2023/01/03 14:13:22;;;;;;;8.77;5.63;;;;;;;7.01;75.91;99896.98;2250410;79;21388;-82
2023/01/03 14:16:23;;;;;;;7.20;4.97;;;;;;;6.99;76.33;99899.04;2251447;79;20901;-81
2023/01/03 14:19:23;;;;;;;5.70;5.10;;;;;;;6.96;76.37;99894.61;2251280;79;20956;-81
2023/01/03 14:22:23;;;;;;;8.70;5.80;;;;;;;6.92;76.55;99900.45;2250479;79;20971;-81
2023/01/03 14:25:24;;;;;;;10.20;5.50;;;;;;;6.88;76.85;99906.75;2250227;79;20954;-80
2023/01/03 14:28:24;;;;;;;15.43;6.50;;;;;;;6.82;77.07;99910.37;2249769;79;21296;-81
2023/01/03 14:31:25;;;;;;;19.47;10.97;;;;;;;6.77;77.40;99908.87;2250179;79;20908;-81
2023/01/03 14:34:25;;;;;;;14.03;9.30;;;;;;;6.73;77.67;99911.27;2250628;79;20956;-80
2023/01/03 14:37:25;;;;;;;38.30;18.27;;;;;;;6.67;77.90;99913.19;2251318;79;20916;-81
2023/01/03 14:40:26;;;;;;;44.93;19.83;;;;;;;6.62;77.91;99907.80;2251529;79;20948;-81
2023/01/03 14:43:26;;;;;;;30.47;15.87;;;;;;;6.55;78.26;99906.16;2252221;79;20988;-83
2023/01/03 14:46:26;;;;;;;31.07;13.70;;;;;;;6.49;78.31;99914.96;2252087;79;20952;-81
2023/01/03 14:49:27;;;;;;;20.93;12.63;;;;;;;6.40;78.70;99911.55;2252409;79;20932;-80
2023/01/03 14:52:27;;;;;;;18.30;10.43;;;;;;;6.33;78.73;99911.67;2252436;79;20944;-80
2023/01/03 14:55:28;;;;;;;26.33;10.17;;;;;;;6.28;78.73;99918.77;2236700;79;21383;-81
2023/01/03 14:58:28;;;;;;;21.07;10.73;;;;;;;6.21;78.95;99918.89;2221771;80;21463;-80
2023/01/03 15:01:29;;;;;;;19.40;10.33;;;;;;;6.14;79.04;99923.73;2221242;80;20955;-80
2023/01/03 15:04:29;;;;;;;17.17;11.50;;;;;;;6.04;79.20;99915.48;2221630;80;21006;-81